Terminal Aerodrome Forecast
Issued by NWS North Platte, NE

Home | Current Version | Previous Version | Text Only | Print | Product List | Glossary On
Versions: 1 2 3 4 5 6 7 8 9 10 11 12 13 14 15 16 17
105
FTUS43 KLBF 311723
TAFVTN
TAF
KVTN 311723Z 3118/0118 28016G24KT P6SM SCT070 SCT100
     FM010100 31006KT P6SM SKC
     FM011300 32012KT P6SM SKC=

USA.gov is the U.S. government's official web portal to all federal, state and local government web resources and services.